createdAt,value
2022-11-19T00:00:00.262Z,0.30
2022-11-19T00:06:13.928Z,0.30
2022-11-19T00:12:34.346Z,0.30
2022-11-19T00:18:36.265Z,0.30
2022-11-19T00:24:39.608Z,0.40
2022-11-19T00:30:47.922Z,0.30
2022-11-19T00:36:51.029Z,0.30
2022-11-19T00:43:11.348Z,0.20
2022-11-19T00:49:13.253Z,0.20
2022-11-19T00:55:15.188Z,0.10
2022-11-19T01:01:19.415Z,0.00
2022-11-19T01:07:21.318Z,0.00
2022-11-19T01:13:35.507Z,-0.10
2022-11-19T01:19:37.389Z,-0.30
2022-11-19T01:25:39.580Z,-0.40
2022-11-19T01:31:41.485Z,-0.40
2022-11-19T01:37:43.358Z,-0.50
2022-11-19T01:43:50.652Z,-0.50
2022-11-19T01:49:52.480Z,-0.50
2022-11-19T01:55:55.740Z,-0.60
2022-11-19T02:01:58.198Z,-0.70
2022-11-19T02:08:00.178Z,-0.80
2022-11-19T02:14:20.816Z,-0.90
2022-11-19T02:20:36.187Z,-0.90
2022-11-19T02:27:12.297Z,-1.10
2022-11-19T02:33:28.999Z,-1.20
2022-11-19T02:39:54.186Z,-1.40
2022-11-19T02:46:08.653Z,-1.50
2022-11-19T02:52:11.855Z,-1.60
2022-11-19T02:58:39.923Z,-1.70
2022-11-19T03:04:41.938Z,-1.90
2022-11-19T03:10:59.138Z,-2.00
2022-11-19T03:17:21.663Z,-2.10
2022-11-19T03:23:37.687Z,-2.20
2022-11-19T03:29:44.090Z,-2.30
2022-11-19T03:35:53.436Z,-2.50
2022-11-19T03:41:57.393Z,-2.50
2022-11-19T03:48:02.409Z,-2.60
2022-11-19T03:54:04.484Z,-2.60
2022-11-19T04:00:06.969Z,-2.60
2022-11-19T04:06:14.336Z,-2.60
2022-11-19T04:12:17.616Z,-2.70
2022-11-19T04:18:19.566Z,-2.80
2022-11-19T04:24:21.507Z,-2.90
2022-11-19T04:30:23.407Z,-2.90
2022-11-19T04:36:25.308Z,-3.00
2022-11-19T04:42:27.174Z,-3.00
2022-11-19T04:48:29.038Z,-3.20
2022-11-19T04:54:30.971Z,-3.20
2022-11-19T05:00:32.898Z,-3.30
2022-11-19T05:06:34.851Z,-3.30
2022-11-19T05:12:36.733Z,-3.40
2022-11-19T05:18:38.593Z,-3.50
2022-11-19T05:24:40.447Z,-3.60
2022-11-19T05:30:42.352Z,-3.70
2022-11-19T05:36:44.501Z,-3.80
2022-11-19T05:42:46.478Z,-3.80
2022-11-19T05:48:48.320Z,-3.80
2022-11-19T05:54:50.239Z,-3.80
2022-11-19T06:00:56.331Z,-3.90
2022-11-19T06:06:58.299Z,-4.00
2022-11-19T06:13:00.242Z,-4.10
2022-11-19T06:19:02.202Z,-4.20
2022-11-19T06:25:08.003Z,-4.30
2022-11-19T06:31:09.905Z,-4.40
2022-11-19T06:37:12.007Z,-4.40
2022-11-19T06:43:13.901Z,-4.40
2022-11-19T06:49:20.130Z,-4.50
2022-11-19T06:55:22.629Z,-4.40
2022-11-19T07:01:24.612Z,-4.40
2022-11-19T07:07:26.531Z,-4.30
2022-11-19T07:13:51.053Z,-4.20
2022-11-19T07:19:52.957Z,-4.20
2022-11-19T07:26:01.540Z,-4.20
2022-11-19T07:32:03.443Z,-4.10
2022-11-19T07:38:05.318Z,-4.10
2022-11-19T07:44:07.411Z,-4.10
2022-11-19T07:50:09.911Z,-4.00
2022-11-19T07:56:11.790Z,-3.90
2022-11-19T08:02:14.847Z,-3.90
2022-11-19T08:08:16.763Z,-3.70
2022-11-19T08:14:18.656Z,-3.40
2022-11-19T08:20:20.523Z,-3.00
2022-11-19T08:26:22.867Z,-2.60
2022-11-19T08:32:24.760Z,-2.20
2022-11-19T08:38:26.769Z,-1.80
2022-11-19T08:44:28.665Z,-1.40
2022-11-19T08:50:31.754Z,-1.00
2022-11-19T08:56:33.665Z,-0.50
2022-11-19T09:02:35.689Z,-0.20
2022-11-19T09:08:37.684Z,0.10
2022-11-19T09:14:39.588Z,0.30
2022-11-19T09:20:41.570Z,0.50
2022-11-19T09:26:46.507Z,0.40
2022-11-19T09:32:50.729Z,0.30
2022-11-19T09:38:57.741Z,0.20
2022-11-19T09:45:06.484Z,0.10
2022-11-19T09:51:11.299Z,0.00
2022-11-19T09:57:18.634Z,0.20
2022-11-19T10:03:21.659Z,0.50
2022-11-19T10:09:58.833Z,0.80
2022-11-19T10:16:20.415Z,1.20
2022-11-19T10:22:31.418Z,1.30
2022-11-19T10:28:38.500Z,1.40
2022-11-19T10:34:43.375Z,1.50
2022-11-19T10:40:58.920Z,1.50
2022-11-19T10:47:05.643Z,1.60
2022-11-19T10:53:16.428Z,1.80
2022-11-19T10:59:24.351Z,1.80
2022-11-19T11:05:26.438Z,1.80
2022-11-19T11:11:52.549Z,2.00
2022-11-19T11:18:06.893Z,1.90
2022-11-19T11:24:11.281Z,1.90
2022-11-19T11:30:13.769Z,2.00
2022-11-19T11:36:19.256Z,2.00
2022-11-19T11:42:24.658Z,2.10
2022-11-19T11:48:35.461Z,2.00
2022-11-19T11:54:58.664Z,2.10
2022-11-19T12:01:20.298Z,2.10
2022-11-19T12:07:52.922Z,2.20
2022-11-19T12:14:11.229Z,2.50
2022-11-19T12:20:20.954Z,2.60
2022-11-19T12:26:50.765Z,2.80
2022-11-19T12:33:06.895Z,2.60
2022-11-19T12:39:23.785Z,2.60
2022-11-19T12:45:42.263Z,2.60
2022-11-19T12:52:22.817Z,2.70
2022-11-19T12:58:39.663Z,2.50
2022-11-19T13:05:11.084Z,2.40
2022-11-19T13:11:29.267Z,2.50
2022-11-19T13:17:35.410Z,2.70
2022-11-19T13:23:40.594Z,2.80
2022-11-19T13:29:47.860Z,2.80
2022-11-19T13:35:54.037Z,3.00
2022-11-19T13:42:15.235Z,3.10
2022-11-19T13:48:31.846Z,3.10
2022-11-19T13:54:39.625Z,3.10
2022-11-19T14:00:54.304Z,3.00
2022-11-19T14:07:29.684Z,2.90
2022-11-19T14:13:42.872Z,2.70
2022-11-19T14:20:13.352Z,2.60
2022-11-19T14:26:41.155Z,2.40
2022-11-19T14:32:51.865Z,2.40
2022-11-19T14:39:00.207Z,2.30
2022-11-19T14:45:02.974Z,2.10
2022-11-19T14:51:16.755Z,2.00
2022-11-19T14:57:38.798Z,1.70
2022-11-19T15:03:48.444Z,1.30
2022-11-19T15:10:09.646Z,0.90
2022-11-19T15:16:25.178Z,0.50
2022-11-19T15:22:41.956Z,0.10
2022-11-19T15:29:02.422Z,-0.30
2022-11-19T15:35:38.247Z,-0.60
2022-11-19T15:42:00.539Z,-0.80
2022-11-19T15:48:33.737Z,-1.00
2022-11-19T15:54:37.326Z,-1.20
2022-11-19T16:00:51.109Z,-1.50
2022-11-19T16:06:53.186Z,-1.70
2022-11-19T16:13:21.444Z,-1.80
2022-11-19T16:19:23.829Z,-1.90
2022-11-19T16:25:42.076Z,-2.10
2022-11-19T16:31:44.609Z,-2.20
2022-11-19T16:37:49.055Z,-2.30
2022-11-19T16:43:51.299Z,-2.40
2022-11-19T16:49:58.519Z,-2.40
2022-11-19T16:56:00.612Z,-2.50
2022-11-19T17:02:03.147Z,-2.60
2022-11-19T17:08:19.334Z,-2.70
2022-11-19T17:14:58.203Z,-2.80
2022-11-19T17:21:19.710Z,-2.80
2022-11-19T17:27:36.562Z,-2.90
2022-11-19T17:33:46.984Z,-3.00
2022-11-19T17:39:48.875Z,-3.00
2022-11-19T17:45:50.759Z,-3.00
2022-11-19T17:51:53.091Z,-3.10
2022-11-19T17:57:54.981Z,-3.00
2022-11-19T18:03:56.935Z,-3.10
2022-11-19T18:09:58.852Z,-3.10
2022-11-19T18:16:00.786Z,-3.10
2022-11-19T18:22:02.820Z,-3.10
2022-11-19T18:28:04.807Z,-3.10
2022-11-19T18:34:06.701Z,-3.20
2022-11-19T18:40:08.977Z,-3.20
2022-11-19T18:46:11.090Z,-3.20
2022-11-19T18:52:16.480Z,-3.30
2022-11-19T18:58:18.347Z,-3.30
2022-11-19T19:04:20.275Z,-3.50
2022-11-19T19:10:22.250Z,-3.40
2022-11-19T19:16:24.163Z,-3.50
2022-11-19T19:22:26.081Z,-3.60
2022-11-19T19:28:27.920Z,-3.60
2022-11-19T19:34:30.228Z,-3.60
2022-11-19T19:40:32.261Z,-3.60
2022-11-19T19:46:34.520Z,-3.70
2022-11-19T19:52:36.453Z,-3.70
2022-11-19T19:58:39.093Z,-3.80
2022-11-19T20:04:41.068Z,-3.90
2022-11-19T20:10:42.945Z,-3.90
2022-11-19T20:16:44.809Z,-4.00
2022-11-19T20:22:46.761Z,-4.00
2022-11-19T20:28:53.462Z,-4.10
2022-11-19T20:34:56.520Z,-4.20
2022-11-19T20:40:59.501Z,-4.20
2022-11-19T20:47:03.411Z,-4.20
2022-11-19T20:53:05.308Z,-4.30
2022-11-19T20:59:07.866Z,-4.30
2022-11-19T21:05:10.109Z,-4.30
2022-11-19T21:11:13.758Z,-4.40
2022-11-19T21:17:15.790Z,-4.40
2022-11-19T21:23:19.391Z,-4.50
2022-11-19T21:29:21.459Z,-4.50
2022-11-19T21:35:24.597Z,-4.50
2022-11-19T21:41:26.890Z,-4.50
2022-11-19T21:47:29.076Z,-4.50
2022-11-19T21:53:34.403Z,-4.50
2022-11-19T21:59:36.638Z,-4.60
2022-11-19T22:05:41.811Z,-4.70
2022-11-19T22:11:43.651Z,-4.80
2022-11-19T22:17:45.932Z,-4.80
2022-11-19T22:23:48.091Z,-4.80
2022-11-19T22:29:50.075Z,-4.80
2022-11-19T22:35:59.218Z,-4.90
2022-11-19T22:42:01.373Z,-4.90
2022-11-19T22:48:03.842Z,-5.00
2022-11-19T22:54:08.671Z,-5.00
2022-11-19T23:00:15.565Z,-5.00
2022-11-19T23:06:18.104Z,-5.10
2022-11-19T23:12:38.553Z,-5.10
2022-11-19T23:18:49.763Z,-5.10
2022-11-19T23:24:51.833Z,-5.10
2022-11-19T23:30:54.223Z,-5.20
2022-11-19T23:36:56.128Z,-5.20
2022-11-19T23:42:58.051Z,-5.20
2022-11-19T23:49:00.859Z,-5.20
2022-11-19T23:55:02.866Z,-5.20
